Terminal Aerodrome Forecast
Issued by NWS

Home | Current Version | Previous Version | Text Only | Print | Product List | Glossary Off
Versions: 1 2 3 4 5 6 7 8 9 10 11 12 13 14

024
FTUS43 KICT 281857 AAA
TAFCNU
TAF AMD
KCNU 281857Z 2819/2918 36012KT P6SM SKC
      TEMPO 2819/2822 36013G21KT
     FM290100 36004KT P6SM SKC
     FM290900 01005KT P6SM SCT015=

USA.gov is the U.S. government's official web portal to all federal, state and local government web resources and services.